Waddams Grove, Illinois
Current Conditions -  °F | °C
As of 10:15 AM on Monday 24 Nov 2014 (Local Time) from KFEP Reporting Station
Moderate Snow Moderate Snow  
Wind Chill: 18°   Ceiling: 500
Heat Index: 30°   Visibility: 0.5mi
Dew Point: 30°   Wind: 21mph
Humidity: 98%   Direction: 260°W
Pressure: 29.29"   Gusts: 29mph
Location:  42.3875°N, 89.8373°W
Report Text: KFEP 241615Z AUTO 26018G25KT 1/2SM SN OVC005 M01/M01 A2929 RMK AO2 T10091012
Loading
Personal Weather Stations






























Interactive Weather Map New forecast layout! Learn more

10-Day Weather Forecast

Advertisements
Track Severe Weather on mobile